sensor_id;sensor_type;location;lat;lon;timestamp;pressure;altitude;pressure_sealevel;temperature;humidity
45525;BME280;31437;58.350;13.828;2022-12-07T00:00:27;99209.81;;;-4.48;100.00
45525;BME280;31437;58.350;13.828;2022-12-07T00:02:53;99206.44;;;-4.52;100.00
45525;BME280;31437;58.350;13.828;2022-12-07T00:05:18;99207.31;;;-4.54;100.00
45525;BME280;31437;58.350;13.828;2022-12-07T00:07:43;99205.63;;;-4.55;100.00
45525;BME280;31437;58.350;13.828;2022-12-07T00:10:09;99202.19;;;-4.54;100.00
45525;BME280;31437;58.350;13.828;2022-12-07T00:12:34;99197.91;;;-4.52;100.00
45525;BME280;31437;58.350;13.828;2022-12-07T00:14:59;99203.00;;;-4.49;100.00
45525;BME280;31437;58.350;13.828;2022-12-07T00:17:24;99202.97;;;-4.46;100.00
45525;BME280;31437;58.350;13.828;2022-12-07T00:19:50;99197.81;;;-4.43;100.00
45525;BME280;31437;58.350;13.828;2022-12-07T00:22:15;99202.91;;;-4.40;100.00
45525;BME280;31437;58.350;13.828;2022-12-07T00:24:40;99200.31;;;-4.37;100.00
45525;BME280;31437;58.350;13.828;2022-12-07T00:27:05;99198.56;;;-4.32;100.00
45525;BME280;31437;58.350;13.828;2022-12-07T00:29:31;99189.16;;;-4.28;100.00
45525;BME280;31437;58.350;13.828;2022-12-07T00:31:56;99190.78;;;-4.24;100.00
45525;BME280;31437;58.350;13.828;2022-12-07T00:34:21;99194.16;;;-4.21;100.00
45525;BME280;31437;58.350;13.828;2022-12-07T00:36:47;99199.25;;;-4.18;100.00
45525;BME280;31437;58.350;13.828;2022-12-07T00:39:13;99200.06;;;-4.13;100.00
45525;BME280;31437;58.350;13.828;2022-12-07T00:41:38;99198.31;;;-4.09;100.00
45525;BME280;31437;58.350;13.828;2022-12-07T00:44:03;99200.00;;;-4.05;100.00
45525;BME280;31437;58.350;13.828;2022-12-07T00:46:29;99194.84;;;-4.03;100.00
45525;BME280;31437;58.350;13.828;2022-12-07T00:48:54;99193.13;;;-4.01;100.00
45525;BME280;31437;58.350;13.828;2022-12-07T00:51:21;99200.78;;;-3.98;100.00
45525;BME280;31437;58.350;13.828;2022-12-07T00:53:47;99190.53;;;-3.98;100.00
45525;BME280;31437;58.350;13.828;2022-12-07T00:56:13;99192.25;;;-3.99;100.00
45525;BME280;31437;58.350;13.828;2022-12-07T00:58:39;99186.25;;;-3.98;100.00
45525;BME280;31437;58.350;13.828;2022-12-07T01:01:05;99186.25;;;-3.98;100.00
45525;BME280;31437;58.350;13.828;2022-12-07T01:03:30;99176.00;;;-3.98;100.00
45525;BME280;31437;58.350;13.828;2022-12-07T01:05:56;99193.09;;;-3.97;100.00
45525;BME280;31437;58.350;13.828;2022-12-07T01:08:22;99192.22;;;-3.97;100.00
45525;BME280;31437;58.350;13.828;2022-12-07T01:10:48;99193.09;;;-3.97;100.00
45525;BME280;31437;58.350;13.828;2022-12-07T01:13:13;99190.50;;;-3.95;100.00
45525;BME280;31437;58.350;13.828;2022-12-07T01:15:39;99187.94;;;-3.95;100.00
45525;BME280;31437;58.350;13.828;2022-12-07T01:18:05;99181.09;;;-3.95;100.00
45525;BME280;31437;58.350;13.828;2022-12-07T01:20:30;99192.16;;;-3.93;100.00
45525;BME280;31437;58.350;13.828;2022-12-07T01:22:55;99189.59;;;-3.91;100.00
45525;BME280;31437;58.350;13.828;2022-12-07T01:25:21;99187.03;;;-3.91;100.00
45525;BME280;31437;58.350;13.828;2022-12-07T01:27:46;99192.13;;;-3.90;100.00
45525;BME280;31437;58.350;13.828;2022-12-07T01:30:11;99186.13;;;-3.89;100.00
45525;BME280;31437;58.350;13.828;2022-12-07T01:32:37;99181.84;;;-3.86;100.00
45525;BME280;31437;58.350;13.828;2022-12-07T01:35:02;99175.00;;;-3.86;100.00
45525;BME280;31437;58.350;13.828;2022-12-07T01:37:28;99169.88;;;-3.84;100.00
45525;BME280;31437;58.350;13.828;2022-12-07T01:39:53;99176.72;;;-3.85;100.00
45525;BME280;31437;58.350;13.828;2022-12-07T01:42:18;99174.16;;;-3.85;100.00
45525;BME280;31437;58.350;13.828;2022-12-07T01:47:28;99170.72;;;-3.84;100.00
45525;BME280;31437;58.350;13.828;2022-12-07T01:49:53;99166.47;;;-3.85;100.00
45525;BME280;31437;58.350;13.828;2022-12-07T01:52:20;99167.31;;;-3.86;100.00
45525;BME280;31437;58.350;13.828;2022-12-07T01:54:49;99165.63;;;-3.87;100.00
45525;BME280;31437;58.350;13.828;2022-12-07T01:57:15;99162.22;;;-3.88;100.00
45525;BME280;31437;58.350;13.828;2022-12-07T01:59:41;99171.66;;;-3.91;100.00
45525;BME280;31437;58.350;13.828;2022-12-07T02:02:10;99170.03;;;-3.97;100.00
45525;BME280;31437;58.350;13.828;2022-12-07T02:04:38;99163.28;;;-4.05;100.00
45525;BME280;31437;58.350;13.828;2022-12-07T02:07:04;99166.75;;;-4.13;100.00
45525;BME280;31437;58.350;13.828;2022-12-07T02:09:30;99168.56;;;-4.19;100.00
45525;BME280;31437;58.350;13.828;2022-12-07T02:11:55;99158.41;;;-4.30;100.00
45525;BME280;31437;58.350;13.828;2022-12-07T02:14:20;99156.81;;;-4.40;100.00
45525;BME280;31437;58.350;13.828;2022-12-07T02:29:39;99142.00;;;-4.98;100.00
45525;BME280;31437;58.350;13.828;2022-12-07T02:34:37;99130.97;;;-5.05;100.00
45525;BME280;31437;58.350;13.828;2022-12-07T02:37:09;99132.69;;;-5.07;100.00
45525;BME280;31437;58.350;13.828;2022-12-07T02:39:51;99133.56;;;-5.08;100.00
45525;BME280;31437;58.350;13.828;2022-12-07T02:42:21;99125.91;;;-5.11;100.00
45525;BME280;31437;58.350;13.828;2022-12-07T02:44:50;99124.19;;;-5.11;100.00
45525;BME280;31437;58.350;13.828;2022-12-07T02:47:16;99122.50;;;-5.13;100.00
45525;BME280;31437;58.350;13.828;2022-12-07T02:49:42;99117.38;;;-5.13;100.00
45525;BME280;31437;58.350;13.828;2022-12-07T02:52:08;99118.25;;;-5.14;100.00
45525;BME280;31437;58.350;13.828;2022-12-07T02:54:33;99119.03;;;-5.09;100.00
45525;BME280;31437;58.350;13.828;2022-12-07T02:57:06;99104.53;;;-5.06;100.00
45525;BME280;31437;58.350;13.828;2022-12-07T03:00:19;99107.88;;;-5.00;100.00
45525;BME280;31437;58.350;13.828;2022-12-07T03:12:36;99111.31;;;-5.02;100.00
45525;BME280;31437;58.350;13.828;2022-12-07T03:15:21;99114.75;;;-5.04;100.00
45525;BME280;31437;58.350;13.828;2022-12-07T03:17:51;99119.88;;;-5.03;100.00
45525;BME280;31437;58.350;13.828;2022-12-07T03:20:17;99117.31;;;-5.04;100.00
45525;BME280;31437;58.350;13.828;2022-12-07T03:22:45;99111.34;;;-5.05;100.00
45525;BME280;31437;58.350;13.828;2022-12-07T03:25:12;99108.75;;;-5.03;100.00
45525;BME280;31437;58.350;13.828;2022-12-07T03:28:01;99108.75;;;-5.03;100.00
45525;BME280;31437;58.350;13.828;2022-12-07T03:30:28;99098.53;;;-5.02;100.00
45525;BME280;31437;58.350;13.828;2022-12-07T03:32:58;99101.97;;;-5.03;100.00
45525;BME280;31437;58.350;13.828;2022-12-07T03:35:33;99101.97;;;-5.04;100.00
45525;BME280;31437;58.350;13.828;2022-12-07T03:40:37;99093.50;;;-5.12;100.00
45525;BME280;31437;58.350;13.828;2022-12-07T03:43:05;99094.38;;;-5.13;100.00
45525;BME280;31437;58.350;13.828;2022-12-07T03:45:40;99089.25;;;-5.13;100.00
45525;BME280;31437;58.350;13.828;2022-12-07T03:50:34;99090.13;;;-5.14;100.00
45525;BME280;31437;58.350;13.828;2022-12-07T03:53:04;99093.53;;;-5.14;100.00
45525;BME280;31437;58.350;13.828;2022-12-07T03:55:33;99089.28;;;-5.16;100.00
45525;BME280;31437;58.350;13.828;2022-12-07T03:58:07;99090.97;;;-5.15;100.00
45525;BME280;31437;58.350;13.828;2022-12-07T04:00:34;99079.91;;;-5.16;100.00
45525;BME280;31437;58.350;13.828;2022-12-07T04:02:59;99086.69;;;-5.13;100.00
45525;BME280;31437;58.350;13.828;2022-12-07T04:05:25;99084.13;;;-5.10;100.00
45525;BME280;31437;58.350;13.828;2022-12-07T04:07:50;99085.81;;;-5.11;100.00
45525;BME280;31437;58.350;13.828;2022-12-07T04:10:16;99085.81;;;-5.12;100.00
45525;BME280;31437;58.350;13.828;2022-12-07T04:12:41;99086.69;;;-5.15;100.00
45525;BME280;31437;58.350;13.828;2022-12-07T04:15:07;99084.16;;;-5.18;100.00
45525;BME280;31437;58.350;13.828;2022-12-07T04:17:32;99078.25;;;-5.20;100.00
45525;BME280;31437;58.350;13.828;2022-12-07T04:19:58;99074.84;;;-5.20;100.00
45525;BME280;31437;58.350;13.828;2022-12-07T04:22:23;99072.28;;;-5.20;100.00
45525;BME280;31437;58.350;13.828;2022-12-07T04:24:48;99068.78;;;-5.15;100.00
45525;BME280;31437;58.350;13.828;2022-12-07T04:27:14;99068.78;;;-5.10;100.00
45525;BME280;31437;58.350;13.828;2022-12-07T04:29:39;99070.44;;;-5.06;100.00
45525;BME280;31437;58.350;13.828;2022-12-07T04:32:04;99063.63;;;-5.07;100.00
45525;BME280;31437;58.350;13.828;2022-12-07T04:34:29;99068.75;;;-5.07;100.00
45525;BME280;31437;58.350;13.828;2022-12-07T04:36:55;99063.59;;;-5.04;100.00
45525;BME280;31437;58.350;13.828;2022-12-07T04:39:24;99064.47;;;-5.05;100.00
45525;BME280;31437;58.350;13.828;2022-12-07T04:41:50;99062.75;;;-5.06;100.00
45525;BME280;31437;58.350;13.828;2022-12-07T04:44:16;99061.06;;;-5.06;100.00
45525;BME280;31437;58.350;13.828;2022-12-07T04:46:41;99059.31;;;-5.04;100.00
45525;BME280;31437;58.350;13.828;2022-12-07T04:49:07;99058.44;;;-4.99;100.00
45525;BME280;31437;58.350;13.828;2022-12-07T04:51:33;99060.09;;;-4.94;100.00
45525;BME280;31437;58.350;13.828;2022-12-07T04:53:58;99056.63;;;-4.88;100.00
45525;BME280;31437;58.350;13.828;2022-12-07T04:56:23;99054.03;;;-4.82;100.00
45525;BME280;31437;58.350;13.828;2022-12-07T04:58:49;99052.28;;;-4.78;100.00
45525;BME280;31437;58.350;13.828;2022-12-07T05:01:15;99048.81;;;-4.74;100.00
45525;BME280;31437;58.350;13.828;2022-12-07T05:03:40;99045.38;;;-4.72;100.00
45525;BME280;31437;58.350;13.828;2022-12-07T05:06:06;99045.34;;;-4.67;100.00
45525;BME280;31437;58.350;13.828;2022-12-07T05:08:32;99041.88;;;-4.65;100.00
45525;BME280;31437;58.350;13.828;2022-12-07T05:10:57;99042.72;;;-4.61;100.00
45525;BME280;31437;58.350;13.828;2022-12-07T05:13:23;99036.75;;;-4.62;100.00
45525;BME280;31437;58.350;13.828;2022-12-07T05:15:48;99039.34;;;-4.66;100.00
45525;BME280;31437;58.350;13.828;2022-12-07T05:18:14;99037.69;;;-4.70;100.00
45525;BME280;31437;58.350;13.828;2022-12-07T05:20:39;99035.16;;;-4.75;100.00
45525;BME280;31437;58.350;13.828;2022-12-07T05:23:05;99041.13;;;-4.74;100.00
45525;BME280;31437;58.350;13.828;2022-12-07T05:25:30;99028.34;;;-4.74;100.00
45525;BME280;31437;58.350;13.828;2022-12-07T05:27:56;99029.19;;;-4.74;100.00
45525;BME280;31437;58.350;13.828;2022-12-07T05:30:21;99018.97;;;-4.75;100.00
45525;BME280;31437;58.350;13.828;2022-12-07T05:32:47;99022.38;;;-4.76;100.00
45525;BME280;31437;58.350;13.828;2022-12-07T05:35:12;99021.63;;;-4.85;100.00
45525;BME280;31437;58.350;13.828;2022-12-07T05:37:37;99023.34;;;-4.87;100.00
45525;BME280;31437;58.350;13.828;2022-12-07T05:40:04;99019.97;;;-4.90;100.00
45525;BME280;31437;58.350;13.828;2022-12-07T05:42:29;99020.03;;;-4.93;100.00
45525;BME280;31437;58.350;13.828;2022-12-07T05:44:54;99017.50;;;-4.96;100.00
45525;BME280;31437;58.350;13.828;2022-12-07T05:47:20;99027.75;;;-5.01;100.00
45525;BME280;31437;58.350;13.828;2022-12-07T05:49:45;99021.00;;;-5.07;100.00
45525;BME280;31437;58.350;13.828;2022-12-07T05:52:10;99028.69;;;-5.10;100.00
45525;BME280;31437;58.350;13.828;2022-12-07T05:54:36;99026.16;;;-5.11;100.00
45525;BME280;31437;58.350;13.828;2022-12-07T05:57:01;99021.84;;;-5.09;100.00
45525;BME280;31437;58.350;13.828;2022-12-07T05:59:26;99021.03;;;-5.08;100.00
45525;BME280;31437;58.350;13.828;2022-12-07T06:01:54;99022.69;;;-5.07;100.00
45525;BME280;31437;58.350;13.828;2022-12-07T06:04:20;99017.63;;;-5.09;100.00
45525;BME280;31437;58.350;13.828;2022-12-07T06:06:45;99018.47;;;-5.10;100.00
45525;BME280;31437;58.350;13.828;2022-12-07T06:09:11;99026.97;;;-5.09;100.00
45525;BME280;31437;58.350;13.828;2022-12-07T06:11:37;99021.84;;;-5.09;100.00
45525;BME280;31437;58.350;13.828;2022-12-07T06:14:21;99021.88;;;-5.11;100.00
45525;BME280;31437;58.350;13.828;2022-12-07T06:16:46;99021.88;;;-5.12;100.00
45525;BME280;31437;58.350;13.828;2022-12-07T06:19:11;99015.94;;;-5.13;100.00
45525;BME280;31437;58.350;13.828;2022-12-07T06:21:37;99022.75;;;-5.15;100.00
45525;BME280;31437;58.350;13.828;2022-12-07T06:24:02;99026.22;;;-5.17;100.00
45525;BME280;31437;58.350;13.828;2022-12-07T06:26:27;99021.13;;;-5.20;100.00
45525;BME280;31437;58.350;13.828;2022-12-07T06:28:53;99021.16;;;-5.23;100.00
45525;BME280;31437;58.350;13.828;2022-12-07T06:31:18;99019.47;;;-5.28;100.00
45525;BME280;31437;58.350;13.828;2022-12-07T06:33:44;99021.19;;;-5.30;100.00
45525;BME280;31437;58.350;13.828;2022-12-07T06:36:09;99020.41;;;-5.35;100.00
45525;BME280;31437;58.350;13.828;2022-12-07T06:38:35;99023.00;;;-5.39;100.00
45525;BME280;31437;58.350;13.828;2022-12-07T06:41:00;99019.59;;;-5.41;100.00
45525;BME280;31437;58.350;13.828;2022-12-07T06:43:26;99028.16;;;-5.45;100.00
45525;BME280;31437;58.350;13.828;2022-12-07T06:45:52;99028.19;;;-5.50;100.00
45525;BME280;31437;58.350;13.828;2022-12-07T06:48:17;99020.56;;;-5.56;100.00
45525;BME280;31437;58.350;13.828;2022-12-07T06:50:46;99013.78;;;-5.62;100.00
45525;BME280;31437;58.350;13.828;2022-12-07T06:53:11;99013.00;;;-5.68;100.00
45525;BME280;31437;58.350;13.828;2022-12-07T06:55:39;99016.44;;;-5.73;100.00
45525;BME280;31437;58.350;13.828;2022-12-07T06:58:05;99013.91;;;-5.76;100.00
45525;BME280;31437;58.350;13.828;2022-12-07T07:00:30;99010.50;;;-5.78;100.00
45525;BME280;31437;58.350;13.828;2022-12-07T07:02:55;99017.31;;;-5.80;100.00
45525;BME280;31437;58.350;13.828;2022-12-07T07:05:21;99015.66;;;-5.79;100.00
45525;BME280;31437;58.350;13.828;2022-12-07T07:07:47;99016.47;;;-5.79;100.00
45525;BME280;31437;58.350;13.828;2022-12-07T07:10:13;99022.44;;;-5.78;100.00
45525;BME280;31437;58.350;13.828;2022-12-07T07:12:38;99025.84;;;-5.78;100.00
45525;BME280;31437;58.350;13.828;2022-12-07T07:15:03;99020.75;;;-5.81;100.00
45525;BME280;31437;58.350;13.828;2022-12-07T07:17:29;99028.41;;;-5.79;100.00
45525;BME280;31437;58.350;13.828;2022-12-07T07:19:54;99024.16;;;-5.80;100.00
45525;BME280;31437;58.350;13.828;2022-12-07T07:22:19;99032.66;;;-5.80;100.00
45525;BME280;31437;58.350;13.828;2022-12-07T07:24:45;99030.13;;;-5.81;100.00
45525;BME280;31437;58.350;13.828;2022-12-07T07:27:10;99036.94;;;-5.82;100.00
45525;BME280;31437;58.350;13.828;2022-12-07T07:29:36;99036.94;;;-5.83;100.00
45525;BME280;31437;58.350;13.828;2022-12-07T07:32:01;99047.19;;;-5.85;100.00
45525;BME280;31437;58.350;13.828;2022-12-07T07:34:26;99054.84;;;-5.85;100.00
45525;BME280;31437;58.350;13.828;2022-12-07T07:36:51;99041.19;;;-5.84;100.00
45525;BME280;31437;58.350;13.828;2022-12-07T07:39:17;99044.59;;;-5.82;100.00
45525;BME280;31437;58.350;13.828;2022-12-07T07:41:42;99041.19;;;-5.79;100.00
45525;BME280;31437;58.350;13.828;2022-12-07T07:44:07;99048.84;;;-5.76;100.00
45525;BME280;31437;58.350;13.828;2022-12-07T07:46:32;99043.69;;;-5.73;100.00
45525;BME280;31437;58.350;13.828;2022-12-07T07:48:58;99047.94;;;-5.71;100.00
45525;BME280;31437;58.350;13.828;2022-12-07T07:51:23;99047.94;;;-5.71;100.00
45525;BME280;31437;58.350;13.828;2022-12-07T07:53:48;99039.38;;;-5.68;100.00
45525;BME280;31437;58.350;13.828;2022-12-07T07:56:14;99043.66;;;-5.67;100.00
45525;BME280;31437;58.350;13.828;2022-12-07T07:58:39;99030.03;;;-5.67;100.00
45525;BME280;31437;58.350;13.828;2022-12-07T08:01:07;99035.16;;;-5.67;100.00
45525;BME280;31437;58.350;13.828;2022-12-07T08:03:33;99031.72;;;-5.68;100.00
45525;BME280;31437;58.350;13.828;2022-12-07T08:05:58;99034.28;;;-5.66;100.00
45525;BME280;31437;58.350;13.828;2022-12-07T08:08:24;99038.53;;;-5.65;100.00
45525;BME280;31437;58.350;13.828;2022-12-07T08:10:49;99035.13;;;-5.66;100.00
45525;BME280;31437;58.350;13.828;2022-12-07T08:13:15;99034.25;;;-5.65;100.00
45525;BME280;31437;58.350;13.828;2022-12-07T08:15:42;99034.25;;;-5.63;100.00
45525;BME280;31437;58.350;13.828;2022-12-07T08:18:07;99037.63;;;-5.60;100.00
45525;BME280;31437;58.350;13.828;2022-12-07T08:25:43;99034.03;;;-5.34;100.00
45525;BME280;31437;58.350;13.828;2022-12-07T08:28:08;99033.03;;;-5.16;100.00
45525;BME280;31437;58.350;13.828;2022-12-07T08:30:34;99038.06;;;-5.06;100.00
45525;BME280;31437;58.350;13.828;2022-12-07T08:32:59;99033.59;;;-4.88;100.00
45525;BME280;31437;58.350;13.828;2022-12-07T08:35:25;99036.94;;;-4.83;100.00
45525;BME280;31437;58.350;13.828;2022-12-07T08:37:51;99030.19;;;-4.87;100.00
45525;BME280;31437;58.350;13.828;2022-12-07T08:48:11;99030.19;;;-4.87;100.00
45525;BME280;31437;58.350;13.828;2022-12-07T08:55:48;99021.66;;;-4.89;100.00
45525;BME280;31437;58.350;13.828;2022-12-07T08:58:14;99019.91;;;-4.86;100.00
45525;BME280;31437;58.350;13.828;2022-12-07T09:00:39;99019.94;;;-4.87;100.00
45525;BME280;31437;58.350;13.828;2022-12-07T09:03:05;99022.53;;;-4.92;100.00
45525;BME280;31437;58.350;13.828;2022-12-07T09:05:31;99021.72;;;-4.95;100.00
45525;BME280;31437;58.350;13.828;2022-12-07T09:07:57;99018.34;;;-4.97;100.00
45525;BME280;31437;58.350;13.828;2022-12-07T09:10:24;99014.13;;;-5.02;100.00
45525;BME280;31437;58.350;13.828;2022-12-07T09:12:51;99020.16;;;-5.06;100.00
45525;BME280;31437;58.350;13.828;2022-12-07T09:15:16;99019.28;;;-5.05;100.00
45525;BME280;31437;58.350;13.828;2022-12-07T09:17:41;99025.22;;;-5.04;100.00
45525;BME280;31437;58.350;13.828;2022-12-07T09:20:07;99029.53;;;-5.09;100.00
45525;BME280;31437;58.350;13.828;2022-12-07T09:22:32;99009.09;;;-5.11;100.00
45525;BME280;31437;58.350;13.828;2022-12-07T09:24:58;99022.75;;;-5.15;100.00
45525;BME280;31437;58.350;13.828;2022-12-07T09:27:24;99017.72;;;-5.19;100.00
45525;BME280;31437;58.350;13.828;2022-12-07T09:29:54;99025.38;;;-5.21;100.00
45525;BME280;31437;58.350;13.828;2022-12-07T09:32:19;99028.81;;;-5.22;100.00
45525;BME280;31437;58.350;13.828;2022-12-07T09:34:45;99031.41;;;-5.28;100.00
45525;BME280;31437;58.350;13.828;2022-12-07T09:37:12;99026.31;;;-5.28;100.00
45525;BME280;31437;58.350;13.828;2022-12-07T09:39:38;99018.66;;;-5.31;100.00
45525;BME280;31437;58.350;13.828;2022-12-07T09:44:39;99021.19;;;-5.28;100.00
45525;BME280;31437;58.350;13.828;2022-12-07T09:47:05;99016.06;;;-5.27;100.00
45525;BME280;31437;58.350;13.828;2022-12-07T09:49:31;99013.50;;;-5.23;100.00
45525;BME280;31437;58.350;13.828;2022-12-07T09:52:02;99009.22;;;-5.23;100.00
45525;BME280;31437;58.350;13.828;2022-12-07T09:54:29;99004.97;;;-5.22;100.00
45525;BME280;31437;58.350;13.828;2022-12-07T09:56:55;99003.28;;;-5.25;100.00
45525;BME280;31437;58.350;13.828;2022-12-07T09:59:22;99009.19;;;-5.21;100.00
45525;BME280;31437;58.350;13.828;2022-12-07T10:01:48;99004.09;;;-5.20;100.00
45525;BME280;31437;58.350;13.828;2022-12-07T10:04:21;99007.47;;;-5.21;100.00
45525;BME280;31437;58.350;13.828;2022-12-07T10:06:47;99010.88;;;-5.17;100.00
45525;BME280;31437;58.350;13.828;2022-12-07T10:09:14;99013.34;;;-5.10;100.00
45525;BME280;31437;58.350;13.828;2022-12-07T10:14:24;99014.16;;;-5.05;100.00
45525;BME280;31437;58.350;13.828;2022-12-07T10:16:52;99009.84;;;-5.01;100.00
45525;BME280;31437;58.350;13.828;2022-12-07T10:19:28;99011.53;;;-4.98;100.00
45525;BME280;31437;58.350;13.828;2022-12-07T10:22:14;99003.88;;;-4.97;100.00
45525;BME280;31437;58.350;13.828;2022-12-07T10:24:39;98997.00;;;-4.93;100.00
45525;BME280;31437;58.350;13.828;2022-12-07T10:27:17;98999.56;;;-4.95;100.00
45525;BME280;31437;58.350;13.828;2022-12-07T10:29:43;99001.25;;;-4.91;100.00
45525;BME280;31437;58.350;13.828;2022-12-07T10:34:41;99002.13;;;-4.93;100.00
45525;BME280;31437;58.350;13.828;2022-12-07T10:37:13;98991.81;;;-4.89;100.00
45525;BME280;31437;58.350;13.828;2022-12-07T10:39:48;98980.75;;;-4.88;100.00
45525;BME280;31437;58.350;13.828;2022-12-07T10:42:26;98983.28;;;-4.89;100.00
45525;BME280;31437;58.350;13.828;2022-12-07T10:48:19;98972.25;;;-4.94;100.00
45525;BME280;31437;58.350;13.828;2022-12-07T11:00:58;98963.84;;;-5.04;100.00
45525;BME280;31437;58.350;13.828;2022-12-07T11:14:02;98959.47;;;-4.94;100.00
45525;BME280;31437;58.350;13.828;2022-12-07T11:24:17;98958.41;;;-4.73;100.00
45525;BME280;31437;58.350;13.828;2022-12-07T11:37:20;98940.25;;;-4.57;100.00
45525;BME280;31437;58.350;13.828;2022-12-07T11:42:36;98927.41;;;-4.52;100.00
45525;BME280;31437;58.350;13.828;2022-12-07T11:47:55;98928.16;;;-4.44;100.00
45525;BME280;31437;58.350;13.828;2022-12-07T11:50:34;98924.69;;;-4.41;100.00
45525;BME280;31437;58.350;13.828;2022-12-07T11:55:29;98931.47;;;-4.37;100.00
45525;BME280;31437;58.350;13.828;2022-12-07T11:58:03;98914.44;;;-4.38;100.00
45525;BME280;31437;58.350;13.828;2022-12-07T12:00:30;98918.63;;;-4.36;100.00
45525;BME280;31437;58.350;13.828;2022-12-07T12:05:22;98913.56;;;-4.37;100.00
45525;BME280;31437;58.350;13.828;2022-12-07T12:10:47;98901.63;;;-4.38;100.00
45525;BME280;31437;58.350;13.828;2022-12-07T12:15:55;98905.03;;;-4.39;100.00
45525;BME280;31437;58.350;13.828;2022-12-07T12:20:57;98909.31;;;-4.41;100.00
45525;BME280;31437;58.350;13.828;2022-12-07T12:25:57;98900.81;;;-4.42;100.00
45525;BME280;31437;58.350;13.828;2022-12-07T12:33:47;98894.88;;;-4.44;100.00
45525;BME280;31437;58.350;13.828;2022-12-07T12:43:59;98904.31;;;-4.49;100.00
45525;BME280;31437;58.350;13.828;2022-12-07T12:49:30;98898.38;;;-4.51;100.00
45525;BME280;31437;58.350;13.828;2022-12-07T12:51:58;98893.28;;;-4.52;100.00
45525;BME280;31437;58.350;13.828;2022-12-07T12:54:27;98891.63;;;-4.55;100.00
45525;BME280;31437;58.350;13.828;2022-12-07T13:15:40;98879.97;;;-4.76;100.00
45525;BME280;31437;58.350;13.828;2022-12-07T13:20:51;98881.78;;;-4.86;100.00
45525;BME280;31437;58.350;13.828;2022-12-07T13:23:18;98882.69;;;-4.91;100.00
45525;BME280;31437;58.350;13.828;2022-12-07T13:25:46;98881.94;;;-4.98;100.00
45525;BME280;31437;58.350;13.828;2022-12-07T13:28:19;98882.84;;;-5.04;100.00
45525;BME280;31437;58.350;13.828;2022-12-07T13:31:32;98879.53;;;-5.09;100.00
45525;BME280;31437;58.350;13.828;2022-12-07T13:33:32;98875.31;;;-5.14;100.00
45525;BME280;31437;58.350;13.828;2022-12-07T13:35:59;98882.19;;;-5.19;100.00
45525;BME280;31437;58.350;13.828;2022-12-07T13:41:02;98883.97;;;-5.26;100.00
45525;BME280;31437;58.350;13.828;2022-12-07T13:43:28;98876.34;;;-5.29;100.00
45525;BME280;31437;58.350;13.828;2022-12-07T13:45:58;98883.13;;;-5.30;100.00
45525;BME280;31437;58.350;13.828;2022-12-07T13:50:58;98871.22;;;-5.29;100.00
45525;BME280;31437;58.350;13.828;2022-12-07T13:53:24;98871.22;;;-5.31;100.00
45525;BME280;31437;58.350;13.828;2022-12-07T13:55:49;98872.94;;;-5.33;100.00
45525;BME280;31437;58.350;13.828;2022-12-07T13:58:15;98864.47;;;-5.35;100.00
45525;BME280;31437;58.350;13.828;2022-12-07T14:00:41;98869.59;;;-5.36;100.00
45525;BME280;31437;58.350;13.828;2022-12-07T14:05:42;98866.22;;;-5.40;100.00
45525;BME280;31437;58.350;13.828;2022-12-07T14:13:02;98850.88;;;-5.41;100.00
45525;BME280;31437;58.350;13.828;2022-12-07T14:15:29;98854.31;;;-5.41;100.00
45525;BME280;31437;58.350;13.828;2022-12-07T14:17:56;98848.38;;;-5.43;100.00
45525;BME280;31437;58.350;13.828;2022-12-07T14:21:01;98847.53;;;-5.43;100.00
45525;BME280;31437;58.350;13.828;2022-12-07T14:23:26;98847.50;;;-5.42;100.00
45525;BME280;31437;58.350;13.828;2022-12-07T14:25:52;98848.38;;;-5.43;100.00
45525;BME280;31437;58.350;13.828;2022-12-07T14:28:28;98847.53;;;-5.43;100.00
45525;BME280;31437;58.350;13.828;2022-12-07T14:30:55;98847.53;;;-5.43;100.00
45525;BME280;31437;58.350;13.828;2022-12-07T14:33:21;98849.25;;;-5.44;100.00
45525;BME280;31437;58.350;13.828;2022-12-07T14:35:47;98849.22;;;-5.42;100.00
45525;BME280;31437;58.350;13.828;2022-12-07T14:38:12;98845.81;;;-5.44;100.00
45525;BME280;31437;58.350;13.828;2022-12-07T14:40:37;98839.88;;;-5.46;100.00
45525;BME280;31437;58.350;13.828;2022-12-07T14:43:05;98844.13;;;-5.45;100.00
45525;BME280;31437;58.350;13.828;2022-12-07T14:45:32;98846.72;;;-5.47;100.00
45525;BME280;31437;58.350;13.828;2022-12-07T14:47:57;98842.44;;;-5.46;100.00
45525;BME280;31437;58.350;13.828;2022-12-07T14:50:23;98844.13;;;-5.45;100.00
45525;BME280;31437;58.350;13.828;2022-12-07T14:52:51;98833.91;;;-5.44;100.00
45525;BME280;31437;58.350;13.828;2022-12-07T14:55:29;98829.59;;;-5.42;100.00
45525;BME280;31437;58.350;13.828;2022-12-07T14:57:57;98825.28;;;-5.38;100.00
45525;BME280;31437;58.350;13.828;2022-12-07T15:00:25;98816.69;;;-5.31;100.00
45525;BME280;31437;58.350;13.828;2022-12-07T15:02:51;98817.50;;;-5.28;100.00
45525;BME280;31437;58.350;13.828;2022-12-07T15:05:16;98818.28;;;-5.21;100.00
45525;BME280;31437;58.350;13.828;2022-12-07T15:07:41;98815.66;;;-5.18;100.00
45525;BME280;31437;58.350;13.828;2022-12-07T15:10:13;98808.00;;;-5.16;100.00
45525;BME280;31437;58.350;13.828;2022-12-07T15:12:39;98813.94;;;-5.14;100.00
45525;BME280;31437;58.350;13.828;2022-12-07T15:15:05;98814.78;;;-5.15;100.00
45525;BME280;31437;58.350;13.828;2022-12-07T15:17:30;98808.88;;;-5.17;100.00
45525;BME280;31437;58.350;13.828;2022-12-07T15:19:55;98807.19;;;-5.20;100.00
45525;BME280;31437;58.350;13.828;2022-12-07T15:22:21;98807.25;;;-5.25;100.00
45525;BME280;31437;58.350;13.828;2022-12-07T15:24:46;98809.84;;;-5.28;100.00
45525;BME280;31437;58.350;13.828;2022-12-07T15:27:12;98805.63;;;-5.32;100.00
45525;BME280;31437;58.350;13.828;2022-12-07T15:29:37;98802.25;;;-5.34;100.00
45525;BME280;31437;58.350;13.828;2022-12-07T15:32:02;98801.44;;;-5.37;100.00